createdAt,value
2024-02-29T00:00:18.789Z,5.07
2024-02-29T00:02:46.241Z,4.93
2024-02-29T00:05:15.100Z,5.03
2024-02-29T00:07:42.608Z,4.53
2024-02-29T00:10:10.667Z,5.18
2024-02-29T00:12:38.208Z,5.35
2024-02-29T00:15:07.129Z,5.72
2024-02-29T00:17:34.493Z,5.82
2024-02-29T00:20:01.823Z,5.65
2024-02-29T00:22:29.150Z,5.50
2024-02-29T00:24:56.701Z,5.65
2024-02-29T00:27:23.982Z,5.80
2024-02-29T00:29:54.398Z,5.80
2024-02-29T00:32:21.705Z,5.88
2024-02-29T00:34:48.996Z,5.82
2024-02-29T00:37:16.235Z,5.72
2024-02-29T00:39:43.576Z,5.85
2024-02-29T00:42:10.757Z,5.85
2024-02-29T00:44:37.974Z,5.82
2024-02-29T00:47:05.273Z,5.82
2024-02-29T00:49:33.305Z,6.10
2024-02-29T00:52:00.487Z,5.82
2024-02-29T00:54:27.643Z,6.25
2024-02-29T00:56:54.981Z,5.43
2024-02-29T00:59:22.351Z,5.35
2024-02-29T01:01:49.839Z,5.13
2024-02-29T01:04:17.287Z,5.63
2024-02-29T01:06:44.599Z,5.75
2024-02-29T01:09:11.870Z,6.10
2024-02-29T01:11:39.655Z,6.30
2024-02-29T01:14:06.939Z,5.90
2024-02-29T01:16:34.704Z,5.38
2024-02-29T01:19:03.592Z,5.47
2024-02-29T01:21:31.242Z,5.50
2024-02-29T01:23:58.805Z,5.80
2024-02-29T01:26:26.077Z,5.85
2024-02-29T01:28:53.553Z,6.25
2024-02-29T01:31:21.520Z,5.78
2024-02-29T01:33:48.821Z,5.15
2024-02-29T01:36:16.045Z,5.63
2024-02-29T01:38:43.395Z,5.18
2024-02-29T01:41:10.724Z,5.22
2024-02-29T01:43:38.118Z,5.50
2024-02-29T01:46:15.800Z,5.03
2024-02-29T01:48:43.488Z,4.75
2024-02-29T01:51:12.591Z,4.28
2024-02-29T01:53:40.001Z,5.40
2024-02-29T01:56:08.424Z,5.50
2024-02-29T01:58:36.559Z,4.50
2024-02-29T02:01:04.761Z,4.75
2024-02-29T02:03:32.101Z,4.78
2024-02-29T02:05:59.351Z,5.22
2024-02-29T02:08:30.714Z,4.50
2024-02-29T02:10:58.150Z,4.63
2024-02-29T02:13:25.524Z,4.65
2024-02-29T02:15:53.015Z,4.93
2024-02-29T02:18:20.460Z,5.03
2024-02-29T02:20:48.341Z,5.28
2024-02-29T02:23:15.716Z,4.72
2024-02-29T02:25:43.052Z,4.90
2024-02-29T02:28:10.295Z,4.20
2024-02-29T02:30:41.429Z,4.97
2024-02-29T02:33:09.176Z,4.93
2024-02-29T02:35:36.402Z,5.03
2024-02-29T02:38:07.133Z,4.70
2024-02-29T02:40:36.434Z,4.65
2024-02-29T02:43:04.906Z,4.30
2024-02-29T02:45:32.486Z,4.10
2024-02-29T02:47:59.877Z,5.25
2024-02-29T02:50:27.285Z,4.28
2024-02-29T02:52:54.444Z,4.07
2024-02-29T02:55:21.939Z,4.80
2024-02-29T02:57:49.340Z,4.78
2024-02-29T03:00:16.931Z,4.40
2024-02-29T03:02:44.598Z,4.68
2024-02-29T03:05:13.678Z,4.60
2024-02-29T03:07:41.002Z,4.70
2024-02-29T03:10:12.379Z,4.57
2024-02-29T03:12:40.219Z,4.38
2024-02-29T03:15:09.081Z,4.75
2024-02-29T03:17:36.580Z,3.78
2024-02-29T03:20:07.085Z,4.00
2024-02-29T03:22:35.142Z,3.85
2024-02-29T03:25:02.445Z,3.72
2024-02-29T03:27:29.798Z,4.40
2024-02-29T03:29:57.122Z,4.75
2024-02-29T03:32:24.310Z,3.40
2024-02-29T03:34:54.326Z,3.58
2024-02-29T03:37:21.758Z,3.35
2024-02-29T03:39:49.000Z,3.97
2024-02-29T03:42:18.575Z,4.07
2024-02-29T03:44:47.432Z,4.32
2024-02-29T03:47:14.765Z,3.50
2024-02-29T03:49:41.951Z,3.90
2024-02-29T03:52:09.354Z,3.50
2024-02-29T03:54:36.719Z,4.43
2024-02-29T03:57:04.033Z,3.88
2024-02-29T03:59:32.547Z,3.70
2024-02-29T04:02:01.463Z,3.83
2024-02-29T04:04:28.820Z,3.90
2024-02-29T04:06:56.301Z,3.80
2024-02-29T04:09:23.596Z,4.47
2024-02-29T04:11:51.166Z,3.35
2024-02-29T04:14:18.430Z,4.38
2024-02-29T04:16:45.928Z,3.40
2024-02-29T04:19:13.648Z,3.60
2024-02-29T04:21:47.671Z,3.58
2024-02-29T04:24:14.939Z,3.25
2024-02-29T04:26:43.934Z,3.17
2024-02-29T04:29:11.140Z,2.90
2024-02-29T04:31:38.562Z,3.78
2024-02-29T04:34:05.860Z,3.40
2024-02-29T04:36:33.245Z,3.28
2024-02-29T04:39:00.455Z,3.08
2024-02-29T04:41:27.843Z,2.90
2024-02-29T04:43:54.996Z,2.83
2024-02-29T04:46:22.154Z,3.10
2024-02-29T04:48:50.020Z,3.15
2024-02-29T04:51:17.190Z,3.42
2024-02-29T04:53:44.510Z,2.97
2024-02-29T04:56:11.694Z,2.75
2024-02-29T04:58:38.950Z,3.42
2024-02-29T05:01:06.536Z,3.30
2024-02-29T05:03:35.021Z,3.58
2024-02-29T05:06:04.795Z,2.90
2024-02-29T05:08:32.412Z,3.10
2024-02-29T05:10:59.812Z,3.03
2024-02-29T05:13:29.617Z,3.00
2024-02-29T05:15:56.978Z,2.85
2024-02-29T05:18:28.130Z,2.90
2024-02-29T05:20:55.319Z,2.97
2024-02-29T05:23:22.713Z,3.63
2024-02-29T05:25:50.138Z,4.00
2024-02-29T05:28:17.636Z,3.83
2024-02-29T05:30:45.123Z,4.43
2024-02-29T05:33:12.498Z,4.47
2024-02-29T05:35:39.929Z,4.68
2024-02-29T05:38:11.382Z,3.97
2024-02-29T05:40:38.719Z,4.55
2024-02-29T05:43:06.140Z,3.90
2024-02-29T05:45:33.453Z,4.78
2024-02-29T05:48:00.703Z,4.35
2024-02-29T05:50:29.915Z,4.25
2024-02-29T05:52:59.700Z,4.35
2024-02-29T05:55:27.270Z,4.43
2024-02-29T05:57:54.615Z,4.15
2024-02-29T06:00:23.536Z,3.88
2024-02-29T06:02:52.950Z,3.65
2024-02-29T06:05:21.391Z,4.35
2024-02-29T06:07:48.632Z,4.20
2024-02-29T06:10:16.102Z,4.20
2024-02-29T06:12:43.572Z,3.92
2024-02-29T06:15:12.173Z,4.82
2024-02-29T06:17:40.335Z,3.55
2024-02-29T06:20:13.456Z,3.90
2024-02-29T06:22:41.739Z,4.10
2024-02-29T06:25:12.421Z,3.28
2024-02-29T06:27:40.933Z,3.42
2024-02-29T06:30:09.686Z,3.63
2024-02-29T06:32:37.390Z,3.58
2024-02-29T06:35:05.120Z,3.88
2024-02-29T06:37:32.546Z,3.85
2024-02-29T06:40:00.028Z,4.68
2024-02-29T06:42:27.472Z,3.45
2024-02-29T06:44:54.775Z,3.80
2024-02-29T06:47:22.000Z,3.60
2024-02-29T06:49:49.195Z,3.42
2024-02-29T06:52:16.639Z,3.50
2024-02-29T06:54:45.788Z,3.70
2024-02-29T06:57:13.915Z,3.65
2024-02-29T06:59:41.453Z,3.67
2024-02-29T07:02:08.743Z,3.60
2024-02-29T07:04:36.086Z,3.28
2024-02-29T07:07:04.915Z,3.13
2024-02-29T07:09:32.211Z,4.10
2024-02-29T07:11:59.649Z,3.53
2024-02-29T07:14:27.258Z,3.38
2024-02-29T07:16:54.607Z,3.30
2024-02-29T07:19:22.065Z,2.83
2024-02-29T07:21:49.302Z,3.38
2024-02-29T07:24:16.509Z,3.40
2024-02-29T07:26:43.696Z,2.67
2024-02-29T07:29:11.006Z,3.15
2024-02-29T07:31:42.858Z,3.33
2024-02-29T07:34:12.097Z,2.80
2024-02-29T07:36:39.697Z,2.92
2024-02-29T07:39:08.599Z,2.70
2024-02-29T07:41:36.074Z,2.63
2024-02-29T07:44:03.812Z,2.75
2024-02-29T07:46:31.241Z,2.92
2024-02-29T07:48:58.748Z,2.90
2024-02-29T07:51:26.431Z,3.30
2024-02-29T07:53:53.832Z,3.13
2024-02-29T07:56:21.032Z,3.05
2024-02-29T07:58:48.602Z,3.30
2024-02-29T08:01:16.230Z,2.70
2024-02-29T08:03:43.700Z,2.40
2024-02-29T08:06:11.128Z,3.67
2024-02-29T08:08:38.965Z,3.17
2024-02-29T08:11:09.202Z,2.83
2024-02-29T08:13:36.340Z,3.10
2024-02-29T08:16:04.380Z,2.72
2024-02-29T08:18:31.631Z,2.53
2024-02-29T08:20:58.894Z,2.50
2024-02-29T08:23:28.695Z,3.10
2024-02-29T08:25:55.885Z,3.40
2024-02-29T08:28:23.282Z,3.15
2024-02-29T08:30:50.624Z,2.70
2024-02-29T08:33:18.109Z,2.83
2024-02-29T08:35:45.419Z,2.90
2024-02-29T08:38:12.777Z,2.67
2024-02-29T08:40:39.892Z,2.95
2024-02-29T08:43:07.421Z,2.40
2024-02-29T08:45:34.569Z,2.78
2024-02-29T08:48:01.828Z,2.92
2024-02-29T08:50:29.214Z,2.38
2024-02-29T08:52:57.115Z,2.90
2024-02-29T08:55:24.806Z,2.35
2024-02-29T08:57:52.020Z,2.30
2024-02-29T09:00:19.754Z,2.30
2024-02-29T09:02:47.117Z,2.20
2024-02-29T09:05:14.626Z,2.40
2024-02-29T09:07:42.086Z,2.97
2024-02-29T09:10:10.954Z,2.65
2024-02-29T09:12:38.398Z,2.38
2024-02-29T09:15:06.870Z,2.42
2024-02-29T09:17:34.700Z,3.00
2024-02-29T09:20:01.908Z,2.63
2024-02-29T09:22:29.352Z,2.20
2024-02-29T09:24:56.582Z,2.25
2024-02-29T09:27:23.860Z,1.80
2024-02-29T09:29:51.093Z,2.10
2024-02-29T09:32:19.647Z,1.92
2024-02-29T09:34:50.961Z,1.95
2024-02-29T09:37:19.751Z,2.28
2024-02-29T09:39:47.306Z,2.13
2024-02-29T09:42:15.540Z,2.35
2024-02-29T09:44:44.638Z,2.05
2024-02-29T09:47:20.366Z,2.30
2024-02-29T09:49:51.225Z,1.88
2024-02-29T09:52:22.751Z,2.15
2024-02-29T09:54:50.142Z,2.40
2024-02-29T09:57:17.773Z,1.70
2024-02-29T09:59:45.277Z,1.92
2024-02-29T10:02:17.356Z,2.28
2024-02-29T10:04:45.171Z,1.95
2024-02-29T10:07:12.433Z,2.25
2024-02-29T10:09:39.915Z,2.45
2024-02-29T10:12:10.578Z,2.20
2024-02-29T10:14:38.054Z,2.75
2024-02-29T10:17:06.176Z,2.08
2024-02-29T10:19:34.621Z,1.88
2024-02-29T10:22:01.916Z,2.03
2024-02-29T10:24:29.146Z,1.90
2024-02-29T10:27:06.095Z,2.53
2024-02-29T10:29:33.348Z,1.92
2024-02-29T10:32:00.797Z,1.80
2024-02-29T10:34:28.126Z,1.40
2024-02-29T10:36:56.073Z,1.95
2024-02-29T10:39:23.466Z,1.90
2024-02-29T10:41:52.105Z,1.85
2024-02-29T10:44:23.355Z,3.40
2024-02-29T10:46:51.891Z,1.80
2024-02-29T10:49:34.298Z,2.40
2024-02-29T10:52:27.746Z,1.92
2024-02-29T10:55:09.601Z,1.75
2024-02-29T10:58:03.404Z,1.70
2024-02-29T11:00:31.135Z,1.75
2024-02-29T11:02:59.644Z,2.90
2024-02-29T11:05:27.813Z,2.30
2024-02-29T11:07:55.561Z,2.70
2024-02-29T11:10:23.933Z,2.15
2024-02-29T11:12:58.756Z,2.17
2024-02-29T11:15:27.836Z,2.55
2024-02-29T11:17:55.540Z,2.40
2024-02-29T11:20:23.597Z,2.30
2024-02-29T11:22:50.714Z,2.40
2024-02-29T11:25:24.022Z,2.53
2024-02-29T11:27:53.006Z,2.30
2024-02-29T11:30:23.869Z,2.10
2024-02-29T11:32:52.535Z,1.83
2024-02-29T11:35:21.675Z,2.20
2024-02-29T11:37:48.968Z,1.90
2024-02-29T11:40:21.464Z,2.33
2024-02-29T11:42:48.933Z,1.67
2024-02-29T11:45:23.513Z,2.10
2024-02-29T11:47:51.456Z,2.63
2024-02-29T11:50:19.072Z,2.70
2024-02-29T11:52:46.637Z,2.70
2024-02-29T11:55:15.182Z,2.83
2024-02-29T11:57:44.000Z,2.80
2024-02-29T12:00:11.783Z,2.45
2024-02-29T12:02:40.524Z,2.60
2024-02-29T12:05:08.646Z,2.92
2024-02-29T12:07:36.105Z,2.83
2024-02-29T12:10:04.008Z,2.50
2024-02-29T12:12:31.418Z,3.30
2024-02-29T12:14:59.003Z,3.38
2024-02-29T12:17:28.415Z,3.10
2024-02-29T12:19:57.565Z,2.72
2024-02-29T12:22:25.630Z,3.30
2024-02-29T12:24:53.677Z,3.10
2024-02-29T12:27:21.205Z,2.70
2024-02-29T12:29:49.472Z,2.90
2024-02-29T12:32:16.887Z,3.17
2024-02-29T12:34:46.270Z,3.33
2024-02-29T12:37:13.981Z,2.97
2024-02-29T12:39:42.422Z,3.38
2024-02-29T12:42:10.555Z,3.50
2024-02-29T12:44:40.179Z,3.45
2024-02-29T12:47:07.684Z,3.15
2024-02-29T12:49:35.016Z,3.40
2024-02-29T12:52:02.477Z,3.50
2024-02-29T12:54:29.810Z,3.20
2024-02-29T12:56:57.217Z,4.07
2024-02-29T12:59:26.079Z,3.80
2024-02-29T13:01:54.710Z,3.60
2024-02-29T13:04:22.746Z,4.13
2024-02-29T13:06:50.198Z,4.38
2024-02-29T13:09:21.287Z,3.63
2024-02-29T13:11:48.989Z,3.80
2024-02-29T13:14:16.974Z,3.65
2024-02-29T13:16:44.545Z,4.38
2024-02-29T13:19:16.213Z,4.43
2024-02-29T13:21:44.110Z,3.65
2024-02-29T13:24:11.446Z,3.25
2024-02-29T13:26:38.750Z,3.58
2024-02-29T13:29:06.047Z,3.25
2024-02-29T13:31:33.534Z,2.97
2024-02-29T13:34:01.582Z,3.40
2024-02-29T13:36:28.863Z,3.30
2024-02-29T13:38:56.418Z,3.08
2024-02-29T13:41:23.783Z,3.10
2024-02-29T13:43:51.159Z,3.30
2024-02-29T13:46:18.532Z,3.13
2024-02-29T13:48:48.303Z,3.20
2024-02-29T13:51:15.734Z,2.83
2024-02-29T13:53:43.086Z,3.08
2024-02-29T13:56:10.602Z,2.95
2024-02-29T13:58:38.495Z,3.80
2024-02-29T14:01:07.577Z,3.03
2024-02-29T14:03:36.737Z,2.88
2024-02-29T14:06:04.146Z,2.40
2024-02-29T14:08:31.407Z,3.15
2024-02-29T14:10:58.695Z,2.85
2024-02-29T14:13:25.982Z,2.90
2024-02-29T14:15:53.285Z,2.90
2024-02-29T14:18:20.812Z,3.38
2024-02-29T14:20:48.268Z,3.22
2024-02-29T14:23:15.539Z,3.05
2024-02-29T14:25:42.850Z,3.35
2024-02-29T14:28:10.459Z,3.33
2024-02-29T14:30:38.071Z,3.15
2024-02-29T14:33:06.314Z,3.40
2024-02-29T14:35:36.672Z,2.72
2024-02-29T14:38:04.881Z,2.90
2024-02-29T14:40:32.183Z,2.60
2024-02-29T14:43:00.080Z,2.80
2024-02-29T14:45:27.434Z,2.40
2024-02-29T14:47:55.402Z,3.95
2024-02-29T14:50:23.081Z,2.55
2024-02-29T14:52:50.338Z,2.47
2024-02-29T14:55:20.473Z,2.50
2024-02-29T14:57:48.179Z,2.85
2024-02-29T15:00:16.056Z,2.47
2024-02-29T15:02:43.751Z,2.60
2024-02-29T15:05:11.435Z,2.88
2024-02-29T15:07:42.301Z,2.60
2024-02-29T15:10:13.758Z,2.25
2024-02-29T15:12:44.564Z,2.38
2024-02-29T15:15:12.126Z,2.30
2024-02-29T15:17:39.493Z,2.45
2024-02-29T15:20:07.801Z,2.38
2024-02-29T15:22:35.141Z,2.47
2024-02-29T15:25:02.727Z,2.40
2024-02-29T15:27:38.973Z,2.42
2024-02-29T15:30:08.432Z,2.63
2024-02-29T15:32:35.997Z,2.42
2024-02-29T15:35:03.513Z,2.25
2024-02-29T15:37:31.680Z,2.85
2024-02-29T15:40:00.674Z,3.50
2024-02-29T15:42:28.679Z,4.13
2024-02-29T15:44:56.163Z,4.70
2024-02-29T15:47:23.540Z,3.88
2024-02-29T15:49:51.101Z,5.90
2024-02-29T15:52:21.596Z,5.53
2024-02-29T15:54:48.937Z,5.00
2024-02-29T15:57:16.278Z,6.18
2024-02-29T15:59:46.524Z,5.85
2024-02-29T16:02:13.929Z,6.85
2024-02-29T16:04:42.121Z,7.05
2024-02-29T16:07:09.389Z,6.03
2024-02-29T16:09:36.745Z,5.68
2024-02-29T16:12:04.956Z,5.38
2024-02-29T16:14:33.028Z,4.82
2024-02-29T16:17:00.396Z,5.50
2024-02-29T16:19:29.091Z,4.95
2024-02-29T16:21:58.525Z,4.85
2024-02-29T16:24:26.299Z,3.80
2024-02-29T16:26:56.351Z,3.70
2024-02-29T16:29:23.935Z,3.90
2024-02-29T16:31:51.633Z,3.47
2024-02-29T16:34:18.814Z,3.63
2024-02-29T16:36:46.306Z,3.63
2024-02-29T16:39:14.047Z,3.60
2024-02-29T16:41:41.429Z,3.47
2024-02-29T16:44:08.954Z,4.03
2024-02-29T16:46:36.384Z,3.78
2024-02-29T16:49:05.987Z,3.67
2024-02-29T16:51:33.394Z,3.45
2024-02-29T16:54:00.734Z,3.25
2024-02-29T16:56:29.058Z,3.17
2024-02-29T16:58:56.726Z,3.30
2024-02-29T17:01:24.146Z,3.30
2024-02-29T17:04:00.263Z,3.17
2024-02-29T17:06:27.626Z,3.58
2024-02-29T17:08:55.078Z,4.53
2024-02-29T17:11:24.208Z,3.88
2024-02-29T17:13:51.761Z,3.55
2024-02-29T17:16:19.234Z,3.30
2024-02-29T17:18:46.857Z,3.38
2024-02-29T17:21:15.680Z,3.42
2024-02-29T17:23:43.086Z,4.70
2024-02-29T17:26:21.030Z,4.55
2024-02-29T17:28:52.334Z,4.88
2024-02-29T17:31:23.466Z,4.22
2024-02-29T17:33:52.602Z,4.03
2024-02-29T17:36:20.519Z,4.18
2024-02-29T17:38:48.198Z,4.22
2024-02-29T17:41:16.030Z,4.28
2024-02-29T17:43:43.599Z,5.03
2024-02-29T17:46:11.126Z,3.80
2024-02-29T17:48:38.538Z,4.07
2024-02-29T17:51:07.326Z,4.05
2024-02-29T17:53:34.649Z,4.10
2024-02-29T17:56:02.839Z,4.82
2024-02-29T17:58:31.979Z,4.78
2024-02-29T18:01:01.360Z,4.00
2024-02-29T18:03:28.983Z,3.85
2024-02-29T18:05:56.185Z,4.45
2024-02-29T18:08:23.339Z,3.50
2024-02-29T18:10:50.722Z,3.92
2024-02-29T18:13:18.095Z,3.70
2024-02-29T18:15:45.415Z,4.40
2024-02-29T18:18:13.980Z,3.85
2024-02-29T18:20:41.425Z,5.00
2024-02-29T18:23:09.126Z,4.07
2024-02-29T18:25:36.571Z,3.78
2024-02-29T18:28:04.637Z,3.90
2024-02-29T18:30:32.618Z,3.78
2024-02-29T18:33:00.156Z,3.75
2024-02-29T18:35:28.030Z,4.43
2024-02-29T18:37:55.695Z,3.90
2024-02-29T18:40:22.957Z,3.95
2024-02-29T18:42:50.668Z,4.13
2024-02-29T18:45:19.586Z,3.60
2024-02-29T18:47:47.147Z,3.80
2024-02-29T18:50:14.792Z,3.22
2024-02-29T18:52:42.203Z,4.55
2024-02-29T18:55:09.795Z,4.15
2024-02-29T18:57:37.178Z,4.07
2024-02-29T19:00:07.716Z,3.30
2024-02-29T19:02:35.090Z,3.60
2024-02-29T19:05:02.271Z,3.33
2024-02-29T20:14:47.564Z,3.55
2024-02-29T20:17:15.372Z,3.20
2024-02-29T20:19:43.052Z,4.10
2024-02-29T20:22:10.492Z,3.97
2024-02-29T20:24:37.767Z,4.43
2024-02-29T20:27:05.690Z,4.00
2024-02-29T20:29:32.764Z,5.10
2024-02-29T20:32:00.148Z,4.03
2024-02-29T20:34:27.449Z,4.07
2024-02-29T20:36:54.672Z,4.15
2024-02-29T20:39:22.701Z,4.47
2024-02-29T20:41:50.033Z,4.82
2024-02-29T20:44:17.334Z,3.80
2024-02-29T20:46:44.904Z,3.92
2024-02-29T20:49:12.154Z,4.07
2024-02-29T20:51:39.624Z,3.90
2024-02-29T20:54:07.184Z,3.97
2024-02-29T20:56:34.794Z,4.40
2024-02-29T20:59:03.393Z,4.18
2024-02-29T21:01:31.190Z,3.38
2024-02-29T21:03:58.667Z,3.95
2024-02-29T21:06:27.104Z,4.43
2024-02-29T21:08:54.540Z,4.30
2024-02-29T21:11:21.955Z,4.25
2024-02-29T21:13:49.856Z,3.97
2024-02-29T21:16:17.424Z,4.20
2024-02-29T21:18:44.718Z,3.80
2024-02-29T21:21:12.409Z,4.05
2024-02-29T21:23:39.944Z,3.90
2024-02-29T21:26:07.923Z,4.03
2024-02-29T21:28:35.171Z,3.28
2024-02-29T21:31:02.589Z,4.10
2024-02-29T21:33:32.443Z,4.40
2024-02-29T21:35:59.594Z,3.78
2024-02-29T21:38:27.023Z,4.13
2024-02-29T21:40:54.745Z,3.33
2024-02-29T21:43:22.264Z,4.13
2024-02-29T21:45:50.486Z,4.40
2024-02-29T21:48:17.795Z,4.35
2024-02-29T21:50:46.642Z,4.88
2024-02-29T21:53:13.914Z,4.47
2024-02-29T21:55:41.208Z,4.25
2024-02-29T21:58:08.578Z,3.80
2024-02-29T22:00:35.904Z,3.75
2024-02-29T22:03:03.320Z,4.20
2024-02-29T22:05:30.539Z,3.80
2024-02-29T22:07:57.768Z,3.58
2024-02-29T22:10:25.833Z,4.60
2024-02-29T22:12:53.266Z,6.85
2024-02-29T22:15:20.514Z,5.85
2024-02-29T22:17:47.782Z,6.25
2024-02-29T22:20:16.145Z,5.65
2024-02-29T22:22:43.512Z,6.47
2024-02-29T22:25:10.916Z,5.50
2024-02-29T22:27:38.092Z,5.85
2024-02-29T22:30:08.118Z,5.40
2024-02-29T22:32:35.560Z,5.78
2024-02-29T22:35:04.391Z,4.93
2024-02-29T22:37:31.660Z,5.57
2024-02-29T22:39:58.958Z,5.25
2024-02-29T22:42:26.368Z,5.60
2024-02-29T22:44:54.363Z,5.07
2024-02-29T22:47:21.666Z,5.72
2024-02-29T22:49:48.798Z,4.65
2024-02-29T22:52:16.167Z,5.40
2024-02-29T22:54:43.361Z,4.90
2024-02-29T22:57:10.707Z,5.28
2024-02-29T22:59:38.457Z,4.43
2024-02-29T23:02:05.903Z,4.65
2024-02-29T23:04:33.841Z,4.65
2024-02-29T23:07:01.305Z,4.68
2024-02-29T23:09:28.663Z,5.00
2024-02-29T23:11:55.909Z,5.57
2024-02-29T23:14:23.036Z,5.18
2024-02-29T23:16:50.161Z,4.65
2024-02-29T23:19:17.363Z,4.82
2024-02-29T23:21:44.618Z,4.85
2024-02-29T23:24:11.998Z,5.00
2024-02-29T23:26:39.225Z,4.85
2024-02-29T23:29:06.388Z,4.70
2024-02-29T23:31:33.759Z,4.53
2024-02-29T23:34:01.432Z,4.18
2024-02-29T23:36:30.090Z,4.38
2024-02-29T23:38:59.949Z,5.07
2024-02-29T23:41:27.184Z,4.50
2024-02-29T23:43:55.327Z,4.80
2024-02-29T23:46:22.830Z,5.07
2024-02-29T23:48:50.093Z,4.07
2024-02-29T23:51:17.992Z,4.80
2024-02-29T23:53:45.273Z,4.72
2024-02-29T23:56:12.528Z,4.60
2024-02-29T23:58:42.749Z,4.38
